sensor_id;sensor_type;location;lat;lon;timestamp;temperature;humidity
10453;DHT22;5274;51.992;8.518;2022-11-02T00:01:41;10.30;99.90
10453;DHT22;5274;51.992;8.518;2022-11-02T00:04:07;10.30;1.00
10453;DHT22;5274;51.992;8.518;2022-11-02T00:06:33;10.30;99.90
10453;DHT22;5274;51.992;8.518;2022-11-02T00:08:59;10.30;99.90
10453;DHT22;5274;51.992;8.518;2022-11-02T00:11:24;10.30;99.90
10453;DHT22;5274;51.992;8.518;2022-11-02T00:13:50;10.30;99.90
10453;DHT22;5274;51.992;8.518;2022-11-02T00:16:17;10.20;1.00
10453;DHT22;5274;51.992;8.518;2022-11-02T00:18:45;10.20;1.00
10453;DHT22;5274;51.992;8.518;2022-11-02T00:21:12;10.20;99.90
10453;DHT22;5274;51.992;8.518;2022-11-02T00:23:40;10.20;1.00
10453;DHT22;5274;51.992;8.518;2022-11-02T00:26:05;10.20;99.90
10453;DHT22;5274;51.992;8.518;2022-11-02T00:28:31;10.30;99.90
10453;DHT22;5274;51.992;8.518;2022-11-02T00:30:57;10.40;99.90
10453;DHT22;5274;51.992;8.518;2022-11-02T00:33:22;10.40;99.90
10453;DHT22;5274;51.992;8.518;2022-11-02T00:35:48;10.50;1.00
10453;DHT22;5274;51.992;8.518;2022-11-02T00:38:13;10.60;1.00
10453;DHT22;5274;51.992;8.518;2022-11-02T00:40:39;10.60;1.00
10453;DHT22;5274;51.992;8.518;2022-11-02T00:43:04;10.70;99.90
10453;DHT22;5274;51.992;8.518;2022-11-02T00:45:31;10.70;99.90
10453;DHT22;5274;51.992;8.518;2022-11-02T00:47:56;10.80;97.50
10453;DHT22;5274;51.992;8.518;2022-11-02T00:50:22;10.80;99.90
10453;DHT22;5274;51.992;8.518;2022-11-02T00:52:47;10.90;1.00
10453;DHT22;5274;51.992;8.518;2022-11-02T00:55:13;10.90;1.00
10453;DHT22;5274;51.992;8.518;2022-11-02T00:57:40;11.00;1.00
10453;DHT22;5274;51.992;8.518;2022-11-02T01:00:07;10.90;1.00
10453;DHT22;5274;51.992;8.518;2022-11-02T01:02:34;10.90;21.50
10453;DHT22;5274;51.992;8.518;2022-11-02T01:05:00;10.90;99.90
10453;DHT22;5274;51.992;8.518;2022-11-02T01:07:28;10.90;1.00
10453;DHT22;5274;51.992;8.518;2022-11-02T01:09:54;11.00;1.00
10453;DHT22;5274;51.992;8.518;2022-11-02T01:12:20;11.00;1.00
10453;DHT22;5274;51.992;8.518;2022-11-02T01:14:46;11.10;1.00
10453;DHT22;5274;51.992;8.518;2022-11-02T01:17:12;11.10;99.90
10453;DHT22;5274;51.992;8.518;2022-11-02T01:19:37;11.20;99.90
10453;DHT22;5274;51.992;8.518;2022-11-02T01:22:03;11.10;1.00
10453;DHT22;5274;51.992;8.518;2022-11-02T01:24:29;11.30;1.00
10453;DHT22;5274;51.992;8.518;2022-11-02T01:26:54;11.30;1.00
10453;DHT22;5274;51.992;8.518;2022-11-02T01:29:20;11.30;75.60
10453;DHT22;5274;51.992;8.518;2022-11-02T01:31:46;11.30;1.00
10453;DHT22;5274;51.992;8.518;2022-11-02T01:34:13;11.40;1.00
10453;DHT22;5274;51.992;8.518;2022-11-02T01:36:38;11.40;99.90
10453;DHT22;5274;51.992;8.518;2022-11-02T01:39:04;11.40;99.90
10453;DHT22;5274;51.992;8.518;2022-11-02T01:41:29;11.40;1.00
10453;DHT22;5274;51.992;8.518;2022-11-02T01:43:56;11.30;99.90
10453;DHT22;5274;51.992;8.518;2022-11-02T01:46:35;11.30;1.00
10453;DHT22;5274;51.992;8.518;2022-11-02T01:49:08;11.20;99.90
10453;DHT22;5274;51.992;8.518;2022-11-02T01:51:39;11.20;1.00
10453;DHT22;5274;51.992;8.518;2022-11-02T01:54:16;11.10;1.00
10453;DHT22;5274;51.992;8.518;2022-11-02T01:56:46;11.10;1.00
10453;DHT22;5274;51.992;8.518;2022-11-02T01:59:17;11.00;1.00
10453;DHT22;5274;51.992;8.518;2022-11-02T02:01:43;11.00;1.00
10453;DHT22;5274;51.992;8.518;2022-11-02T02:04:10;11.00;1.00
10453;DHT22;5274;51.992;8.518;2022-11-02T02:06:38;11.00;99.90
10453;DHT22;5274;51.992;8.518;2022-11-02T02:09:04;11.00;57.20
10453;DHT22;5274;51.992;8.518;2022-11-02T02:11:36;11.10;1.00
10453;DHT22;5274;51.992;8.518;2022-11-02T02:14:08;11.10;99.90
10453;DHT22;5274;51.992;8.518;2022-11-02T02:19:39;11.20;1.00
10453;DHT22;5274;51.992;8.518;2022-11-02T02:28:31;11.00;1.00
10453;DHT22;5274;51.992;8.518;2022-11-02T02:31:20;11.10;1.00
10453;DHT22;5274;51.992;8.518;2022-11-02T02:36:28;11.10;1.00
10453;DHT22;5274;51.992;8.518;2022-11-02T02:39:04;11.10;99.90
10453;DHT22;5274;51.992;8.518;2022-11-02T02:41:40;11.10;99.90
10453;DHT22;5274;51.992;8.518;2022-11-02T02:44:10;11.10;1.00
10453;DHT22;5274;51.992;8.518;2022-11-02T02:46:43;11.00;99.90
10453;DHT22;5274;51.992;8.518;2022-11-02T02:49:13;11.00;1.00
10453;DHT22;5274;51.992;8.518;2022-11-02T02:51:40;10.90;1.00
10453;DHT22;5274;51.992;8.518;2022-11-02T02:54:24;10.90;1.00
10453;DHT22;5274;51.992;8.518;2022-11-02T02:56:56;10.90;78.40
10453;DHT22;5274;51.992;8.518;2022-11-02T02:59:28;10.90;99.90
10453;DHT22;5274;51.992;8.518;2022-11-02T03:01:55;10.80;1.00
10453;DHT22;5274;51.992;8.518;2022-11-02T03:04:21;10.80;99.90
10453;DHT22;5274;51.992;8.518;2022-11-02T03:06:56;10.80;1.00
10453;DHT22;5274;51.992;8.518;2022-11-02T03:09:35;10.70;1.00
10453;DHT22;5274;51.992;8.518;2022-11-02T03:15:12;10.70;1.00
10453;DHT22;5274;51.992;8.518;2022-11-02T03:18:06;10.70;1.00
10453;DHT22;5274;51.992;8.518;2022-11-02T03:23:30;10.70;50.40
10453;DHT22;5274;51.992;8.518;2022-11-02T03:26:09;10.70;99.90
10453;DHT22;5274;51.992;8.518;2022-11-02T03:28:51;10.60;1.00
10453;DHT22;5274;51.992;8.518;2022-11-02T03:31:30;10.60;1.00
10453;DHT22;5274;51.992;8.518;2022-11-02T03:34:03;10.60;1.00
10453;DHT22;5274;51.992;8.518;2022-11-02T03:39:15;10.70;99.90
10453;DHT22;5274;51.992;8.518;2022-11-02T03:41:43;10.80;99.90
10453;DHT22;5274;51.992;8.518;2022-11-02T03:44:14;10.80;1.00
10453;DHT22;5274;51.992;8.518;2022-11-02T03:46:42;10.80;1.00
10453;DHT22;5274;51.992;8.518;2022-11-02T03:49:11;10.80;1.00
10453;DHT22;5274;51.992;8.518;2022-11-02T03:51:39;10.80;14.30
10453;DHT22;5274;51.992;8.518;2022-11-02T03:54:12;10.70;99.90
10453;DHT22;5274;51.992;8.518;2022-11-02T03:56:45;10.70;1.00
10453;DHT22;5274;51.992;8.518;2022-11-02T03:59:11;10.70;99.90
10453;DHT22;5274;51.992;8.518;2022-11-02T04:01:49;10.70;99.90
10453;DHT22;5274;51.992;8.518;2022-11-02T04:04:15;10.70;99.90
10453;DHT22;5274;51.992;8.518;2022-11-02T04:06:44;10.60;1.00
10453;DHT22;5274;51.992;8.518;2022-11-02T04:09:11;10.60;1.00
10453;DHT22;5274;51.992;8.518;2022-11-02T04:11:36;10.60;99.90
10453;DHT22;5274;51.992;8.518;2022-11-02T04:14:20;10.60;99.90
10453;DHT22;5274;51.992;8.518;2022-11-02T04:17:09;10.70;99.90
10453;DHT22;5274;51.992;8.518;2022-11-02T04:19:54;10.70;1.00
10453;DHT22;5274;51.992;8.518;2022-11-02T04:22:20;10.70;99.90
10453;DHT22;5274;51.992;8.518;2022-11-02T04:25:05;10.70;1.00
10453;DHT22;5274;51.992;8.518;2022-11-02T04:27:41;10.80;8.50
10453;DHT22;5274;51.992;8.518;2022-11-02T04:30:07;10.70;94.70
10453;DHT22;5274;51.992;8.518;2022-11-02T04:32:43;10.70;1.00
10453;DHT22;5274;51.992;8.518;2022-11-02T04:35:28;10.80;1.00
10453;DHT22;5274;51.992;8.518;2022-11-02T04:37:53;10.90;1.00
10453;DHT22;5274;51.992;8.518;2022-11-02T04:40:37;12.00;99.90
10453;DHT22;5274;51.992;8.518;2022-11-02T04:43:03;10.90;99.90
10453;DHT22;5274;51.992;8.518;2022-11-02T04:45:29;10.90;99.90
10453;DHT22;5274;51.992;8.518;2022-11-02T04:48:02;10.90;1.00
10453;DHT22;5274;51.992;8.518;2022-11-02T04:50:29;10.80;79.20
10453;DHT22;5274;51.992;8.518;2022-11-02T04:52:56;10.80;93.20
10453;DHT22;5274;51.992;8.518;2022-11-02T04:55:22;10.80;1.00
10453;DHT22;5274;51.992;8.518;2022-11-02T04:57:47;10.80;99.90
10453;DHT22;5274;51.992;8.518;2022-11-02T05:00:13;10.80;13.90
10453;DHT22;5274;51.992;8.518;2022-11-02T05:02:39;10.90;54.80
10453;DHT22;5274;51.992;8.518;2022-11-02T05:05:05;11.00;1.00
10453;DHT22;5274;51.992;8.518;2022-11-02T05:07:31;11.00;1.00
10453;DHT22;5274;51.992;8.518;2022-11-02T05:09:56;11.00;1.00
10453;DHT22;5274;51.992;8.518;2022-11-02T05:12:22;11.00;99.90
10453;DHT22;5274;51.992;8.518;2022-11-02T05:14:47;11.10;1.00
10453;DHT22;5274;51.992;8.518;2022-11-02T05:17:13;11.20;1.00
10453;DHT22;5274;51.992;8.518;2022-11-02T05:19:40;11.20;99.90
10453;DHT22;5274;51.992;8.518;2022-11-02T05:22:06;11.20;1.00
10453;DHT22;5274;51.992;8.518;2022-11-02T05:24:31;11.20;41.40
10453;DHT22;5274;51.992;8.518;2022-11-02T05:26:57;11.20;99.90
10453;DHT22;5274;51.992;8.518;2022-11-02T05:29:25;11.30;99.90
10453;DHT22;5274;51.992;8.518;2022-11-02T05:31:50;11.30;64.00
10453;DHT22;5274;51.992;8.518;2022-11-02T05:34:16;11.30;99.90
10453;DHT22;5274;51.992;8.518;2022-11-02T05:36:41;11.30;99.90
10453;DHT22;5274;51.992;8.518;2022-11-02T05:39:07;11.30;14.40
10453;DHT22;5274;51.992;8.518;2022-11-02T05:41:33;11.30;99.90
10453;DHT22;5274;51.992;8.518;2022-11-02T05:43:58;11.30;1.00
10453;DHT22;5274;51.992;8.518;2022-11-02T05:46:24;11.30;1.00
10453;DHT22;5274;51.992;8.518;2022-11-02T05:48:49;11.30;27.90
10453;DHT22;5274;51.992;8.518;2022-11-02T05:51:15;11.30;99.90
10453;DHT22;5274;51.992;8.518;2022-11-02T05:53:40;11.30;1.00
10453;DHT22;5274;51.992;8.518;2022-11-02T05:56:08;11.40;99.90
10453;DHT22;5274;51.992;8.518;2022-11-02T05:58:35;11.40;1.00
10453;DHT22;5274;51.992;8.518;2022-11-02T06:01:02;11.40;1.00
10453;DHT22;5274;51.992;8.518;2022-11-02T06:03:29;11.50;51.10
10453;DHT22;5274;51.992;8.518;2022-11-02T06:05:59;11.50;99.90
10453;DHT22;5274;51.992;8.518;2022-11-02T06:08:24;11.50;1.00
10453;DHT22;5274;51.992;8.518;2022-11-02T06:10:50;11.40;1.00
10453;DHT22;5274;51.992;8.518;2022-11-02T06:13:16;11.40;1.00
10453;DHT22;5274;51.992;8.518;2022-11-02T06:15:41;11.30;99.90
10453;DHT22;5274;51.992;8.518;2022-11-02T06:18:07;11.20;99.90
10453;DHT22;5274;51.992;8.518;2022-11-02T06:20:32;11.20;99.90
10453;DHT22;5274;51.992;8.518;2022-11-02T06:22:58;11.20;1.00
10453;DHT22;5274;51.992;8.518;2022-11-02T06:25:24;11.20;1.00
10453;DHT22;5274;51.992;8.518;2022-11-02T06:27:51;11.30;99.90
10453;DHT22;5274;51.992;8.518;2022-11-02T06:30:18;11.30;99.90
10453;DHT22;5274;51.992;8.518;2022-11-02T06:32:48;11.30;1.00
10453;DHT22;5274;51.992;8.518;2022-11-02T06:35:14;11.30;99.90
10453;DHT22;5274;51.992;8.518;2022-11-02T06:37:39;11.30;49.00
10453;DHT22;5274;51.992;8.518;2022-11-02T06:40:05;11.30;1.00
10453;DHT22;5274;51.992;8.518;2022-11-02T06:42:31;11.40;1.00
10453;DHT22;5274;51.992;8.518;2022-11-02T06:44:56;11.50;1.00
10453;DHT22;5274;51.992;8.518;2022-11-02T06:47:31;11.50;99.90
10453;DHT22;5274;51.992;8.518;2022-11-02T06:49:58;11.50;99.90
10453;DHT22;5274;51.992;8.518;2022-11-02T06:52:24;11.60;1.00
10453;DHT22;5274;51.992;8.518;2022-11-02T06:54:50;11.60;99.90
10453;DHT22;5274;51.992;8.518;2022-11-02T06:57:15;11.60;99.90
10453;DHT22;5274;51.992;8.518;2022-11-02T06:59:41;11.60;1.00
10453;DHT22;5274;51.992;8.518;2022-11-02T07:02:07;11.60;1.00
10453;DHT22;5274;51.992;8.518;2022-11-02T07:04:33;11.60;1.00
10453;DHT22;5274;51.992;8.518;2022-11-02T07:06:59;11.70;99.90
10453;DHT22;5274;51.992;8.518;2022-11-02T07:09:24;11.70;99.90
10453;DHT22;5274;51.992;8.518;2022-11-02T07:11:50;11.80;1.00
10453;DHT22;5274;51.992;8.518;2022-11-02T07:14:15;11.80;1.00
10453;DHT22;5274;51.992;8.518;2022-11-02T07:16:41;11.80;15.00
10453;DHT22;5274;51.992;8.518;2022-11-02T07:19:06;11.80;99.90
10453;DHT22;5274;51.992;8.518;2022-11-02T07:21:32;11.80;1.00
10453;DHT22;5274;51.992;8.518;2022-11-02T07:23:57;11.80;1.00
10453;DHT22;5274;51.992;8.518;2022-11-02T07:26:23;11.80;1.00
10453;DHT22;5274;51.992;8.518;2022-11-02T07:28:48;11.90;99.90
10453;DHT22;5274;51.992;8.518;2022-11-02T07:31:14;11.90;99.90
10453;DHT22;5274;51.992;8.518;2022-11-02T07:33:39;12.00;1.00
10453;DHT22;5274;51.992;8.518;2022-11-02T07:36:05;12.00;99.90
10453;DHT22;5274;51.992;8.518;2022-11-02T07:38:31;12.00;99.90
10453;DHT22;5274;51.992;8.518;2022-11-02T07:40:56;12.00;1.00
10453;DHT22;5274;51.992;8.518;2022-11-02T07:43:22;12.00;1.00
10453;DHT22;5274;51.992;8.518;2022-11-02T07:45:47;12.10;1.00
10453;DHT22;5274;51.992;8.518;2022-11-02T07:48:13;12.10;1.00
10453;DHT22;5274;51.992;8.518;2022-11-02T07:50:38;12.10;99.90
10453;DHT22;5274;51.992;8.518;2022-11-02T07:53:04;12.10;99.90
10453;DHT22;5274;51.992;8.518;2022-11-02T07:55:30;12.10;1.00
10453;DHT22;5274;51.992;8.518;2022-11-02T07:58:04;12.20;99.90
10453;DHT22;5274;51.992;8.518;2022-11-02T08:00:35;12.20;99.90
10453;DHT22;5274;51.992;8.518;2022-11-02T08:03:02;12.10;99.90
10453;DHT22;5274;51.992;8.518;2022-11-02T08:05:30;12.10;49.20
10453;DHT22;5274;51.992;8.518;2022-11-02T08:08:00;12.20;99.90
10453;DHT22;5274;51.992;8.518;2022-11-02T08:10:26;12.20;69.00
10453;DHT22;5274;51.992;8.518;2022-11-02T08:12:52;12.30;99.90
10453;DHT22;5274;51.992;8.518;2022-11-02T08:15:18;12.30;99.90
10453;DHT22;5274;51.992;8.518;2022-11-02T08:17:43;12.20;1.00
10453;DHT22;5274;51.992;8.518;2022-11-02T08:20:12;12.20;1.00
10453;DHT22;5274;51.992;8.518;2022-11-02T08:22:39;12.20;1.00
10453;DHT22;5274;51.992;8.518;2022-11-02T08:25:05;12.20;1.00
10453;DHT22;5274;51.992;8.518;2022-11-02T08:27:31;12.20;99.90
10453;DHT22;5274;51.992;8.518;2022-11-02T08:29:57;12.30;1.00
10453;DHT22;5274;51.992;8.518;2022-11-02T08:32:22;12.20;99.90
10453;DHT22;5274;51.992;8.518;2022-11-02T08:34:48;12.30;99.90
10453;DHT22;5274;51.992;8.518;2022-11-02T08:37:13;12.30;99.90
10453;DHT22;5274;51.992;8.518;2022-11-02T08:39:39;12.30;1.00
10453;DHT22;5274;51.992;8.518;2022-11-02T08:42:04;12.40;99.90
10453;DHT22;5274;51.992;8.518;2022-11-02T08:44:30;12.40;1.00
10453;DHT22;5274;51.992;8.518;2022-11-02T08:46:55;12.40;99.90
10453;DHT22;5274;51.992;8.518;2022-11-02T08:49:21;12.50;99.90
10453;DHT22;5274;51.992;8.518;2022-11-02T08:51:46;12.50;1.00
10453;DHT22;5274;51.992;8.518;2022-11-02T08:54:12;12.50;1.00
10453;DHT22;5274;51.992;8.518;2022-11-02T08:56:38;12.50;99.90
10453;DHT22;5274;51.992;8.518;2022-11-02T08:59:04;12.60;1.00
10453;DHT22;5274;51.992;8.518;2022-11-02T09:01:29;12.60;1.00
10453;DHT22;5274;51.992;8.518;2022-11-02T09:03:55;12.70;1.00
10453;DHT22;5274;51.992;8.518;2022-11-02T09:06:21;12.70;99.90
10453;DHT22;5274;51.992;8.518;2022-11-02T09:08:46;12.70;36.70
10453;DHT22;5274;51.992;8.518;2022-11-02T09:11:12;12.60;99.90
10453;DHT22;5274;51.992;8.518;2022-11-02T09:13:37;12.50;29.50
10453;DHT22;5274;51.992;8.518;2022-11-02T09:16:03;12.50;99.90
10453;DHT22;5274;51.992;8.518;2022-11-02T09:18:29;12.60;99.90
10453;DHT22;5274;51.992;8.518;2022-11-02T09:20:55;12.70;1.00
10453;DHT22;5274;51.992;8.518;2022-11-02T09:23:21;12.70;1.00
10453;DHT22;5274;51.992;8.518;2022-11-02T09:25:47;12.70;1.00
10453;DHT22;5274;51.992;8.518;2022-11-02T09:28:13;12.70;1.00
10453;DHT22;5274;51.992;8.518;2022-11-02T09:30:40;12.70;1.00
10453;DHT22;5274;51.992;8.518;2022-11-02T09:33:06;12.60;99.90
10453;DHT22;5274;51.992;8.518;2022-11-02T09:35:34;12.70;99.90
10453;DHT22;5274;51.992;8.518;2022-11-02T09:37:59;12.60;99.90
10453;DHT22;5274;51.992;8.518;2022-11-02T09:40:27;12.60;99.90
10453;DHT22;5274;51.992;8.518;2022-11-02T09:43:19;12.50;1.00
10453;DHT22;5274;51.992;8.518;2022-11-02T09:45:57;12.50;99.90
10453;DHT22;5274;51.992;8.518;2022-11-02T09:48:41;12.70;99.90
10453;DHT22;5274;51.992;8.518;2022-11-02T09:51:14;12.80;99.90
10453;DHT22;5274;51.992;8.518;2022-11-02T09:56:06;12.70;99.90
10453;DHT22;5274;51.992;8.518;2022-11-02T09:58:36;12.70;99.90
10453;DHT22;5274;51.992;8.518;2022-11-02T10:06:22;12.80;99.90
10453;DHT22;5274;51.992;8.518;2022-11-02T10:11:54;12.80;99.90
10453;DHT22;5274;51.992;8.518;2022-11-02T10:19:25;13.10;1.00
10453;DHT22;5274;51.992;8.518;2022-11-02T10:21:56;13.00;1.00
10453;DHT22;5274;51.992;8.518;2022-11-02T10:24:34;13.10;1.00
10453;DHT22;5274;51.992;8.518;2022-11-02T10:27:31;13.40;1.00
10453;DHT22;5274;51.992;8.518;2022-11-02T10:32:23;13.30;1.00
10453;DHT22;5274;51.992;8.518;2022-11-02T10:34:49;13.20;1.00
10453;DHT22;5274;51.992;8.518;2022-11-02T10:40:25;13.50;1.00
10453;DHT22;5274;51.992;8.518;2022-11-02T10:43:04;13.80;1.00
10453;DHT22;5274;51.992;8.518;2022-11-02T10:48:54;14.10;1.00
10453;DHT22;5274;51.992;8.518;2022-11-02T10:51:24;14.10;1.00
10453;DHT22;5274;51.992;8.518;2022-11-02T10:53:51;14.10;1.00
10453;DHT22;5274;51.992;8.518;2022-11-02T10:56:24;14.30;1.00
10453;DHT22;5274;51.992;8.518;2022-11-02T10:59:02;14.10;1.00
10453;DHT22;5274;51.992;8.518;2022-11-02T11:01:33;13.90;1.00
10453;DHT22;5274;51.992;8.518;2022-11-02T11:03:59;13.90;1.00
10453;DHT22;5274;51.992;8.518;2022-11-02T11:06:36;14.10;1.00
10453;DHT22;5274;51.992;8.518;2022-11-02T11:09:16;13.90;1.00
10453;DHT22;5274;51.992;8.518;2022-11-02T11:11:58;13.70;1.00
10453;DHT22;5274;51.992;8.518;2022-11-02T11:14:29;13.50;1.00
10453;DHT22;5274;51.992;8.518;2022-11-02T11:16:59;13.90;1.00
10453;DHT22;5274;51.992;8.518;2022-11-02T11:19:39;15.30;1.00
10453;DHT22;5274;51.992;8.518;2022-11-02T11:22:29;15.80;1.00
10453;DHT22;5274;51.992;8.518;2022-11-02T11:27:56;15.00;1.00
10453;DHT22;5274;51.992;8.518;2022-11-02T11:32:47;14.70;1.00
10453;DHT22;5274;51.992;8.518;2022-11-02T11:35:16;14.30;1.00
10453;DHT22;5274;51.992;8.518;2022-11-02T11:37:52;14.20;1.00
10453;DHT22;5274;51.992;8.518;2022-11-02T11:40:20;14.00;1.00
10453;DHT22;5274;51.992;8.518;2022-11-02T11:42:49;13.80;1.00
10453;DHT22;5274;51.992;8.518;2022-11-02T11:45:25;13.70;1.00
10453;DHT22;5274;51.992;8.518;2022-11-02T11:47:53;13.70;1.00
10453;DHT22;5274;51.992;8.518;2022-11-02T11:50:19;14.40;1.00
10453;DHT22;5274;51.992;8.518;2022-11-02T11:52:46;16.30;1.00
10453;DHT22;5274;51.992;8.518;2022-11-02T11:55:27;18.60;1.00
10453;DHT22;5274;51.992;8.518;2022-11-02T12:03:55;15.50;1.00
10453;DHT22;5274;51.992;8.518;2022-11-02T12:06:45;15.10;1.00
10453;DHT22;5274;51.992;8.518;2022-11-02T12:09:25;14.40;1.00
10453;DHT22;5274;51.992;8.518;2022-11-02T12:12:15;15.80;1.00
10453;DHT22;5274;51.992;8.518;2022-11-02T12:20:11;13.90;1.00
10453;DHT22;5274;51.992;8.518;2022-11-02T12:26:42;13.40;1.00
10453;DHT22;5274;51.992;8.518;2022-11-02T12:43:19;20.50;99.90
10453;DHT22;5274;51.992;8.518;2022-11-02T12:46:01;19.90;99.90
10453;DHT22;5274;51.992;8.518;2022-11-02T12:51:30;20.00;99.90
10453;DHT22;5274;51.992;8.518;2022-11-02T12:53:59;20.10;99.90
10453;DHT22;5274;51.992;8.518;2022-11-02T12:56:45;22.20;99.90
10453;DHT22;5274;51.992;8.518;2022-11-02T12:59:29;22.50;99.90
10453;DHT22;5274;51.992;8.518;2022-11-02T13:02:05;23.10;99.90
10453;DHT22;5274;51.992;8.518;2022-11-02T13:05:25;22.90;99.90
10453;DHT22;5274;51.992;8.518;2022-11-02T13:07:30;24.00;99.90
10453;DHT22;5274;51.992;8.518;2022-11-02T13:10:03;22.80;99.90
10453;DHT22;5274;51.992;8.518;2022-11-02T13:12:31;21.00;99.90
10453;DHT22;5274;51.992;8.518;2022-11-02T13:15:00;19.40;99.90
10453;DHT22;5274;51.992;8.518;2022-11-02T13:17:42;18.10;99.90
10453;DHT22;5274;51.992;8.518;2022-11-02T13:20:23;17.30;99.90
10453;DHT22;5274;51.992;8.518;2022-11-02T13:23:04;17.00;99.90
10453;DHT22;5274;51.992;8.518;2022-11-02T13:25:35;16.70;99.90
10453;DHT22;5274;51.992;8.518;2022-11-02T13:28:10;16.60;99.90
10453;DHT22;5274;51.992;8.518;2022-11-02T13:30:38;16.40;99.90
10453;DHT22;5274;51.992;8.518;2022-11-02T13:33:17;15.70;99.90
10453;DHT22;5274;51.992;8.518;2022-11-02T13:35:45;15.70;99.90
10453;DHT22;5274;51.992;8.518;2022-11-02T13:40:44;15.50;99.90
10453;DHT22;5274;51.992;8.518;2022-11-02T13:46:01;15.30;99.90
10453;DHT22;5274;51.992;8.518;2022-11-02T13:51:10;15.50;99.90
10453;DHT22;5274;51.992;8.518;2022-11-02T13:53:40;15.30;99.90
10453;DHT22;5274;51.992;8.518;2022-11-02T13:56:11;15.20;99.90
10453;DHT22;5274;51.992;8.518;2022-11-02T13:59:06;15.00;99.90
10453;DHT22;5274;51.992;8.518;2022-11-02T14:01:34;14.70;99.90
10453;DHT22;5274;51.992;8.518;2022-11-02T14:04:12;14.70;99.90
10453;DHT22;5274;51.992;8.518;2022-11-02T14:09:37;14.50;99.90
10453;DHT22;5274;51.992;8.518;2022-11-02T14:14:42;14.30;99.90
10453;DHT22;5274;51.992;8.518;2022-11-02T14:17:12;14.40;99.90
10453;DHT22;5274;51.992;8.518;2022-11-02T14:22:14;14.30;99.90
10453;DHT22;5274;51.992;8.518;2022-11-02T14:48:30;13.70;99.90
10453;DHT22;5274;51.992;8.518;2022-11-02T14:51:01;13.60;99.90
10453;DHT22;5274;51.992;8.518;2022-11-02T14:53:33;13.70;99.90
10453;DHT22;5274;51.992;8.518;2022-11-02T14:56:00;13.60;99.90
10453;DHT22;5274;51.992;8.518;2022-11-02T14:58:34;13.60;99.90
10453;DHT22;5274;51.992;8.518;2022-11-02T15:01:02;13.50;99.90
10453;DHT22;5274;51.992;8.518;2022-11-02T15:03:35;13.40;99.90
10453;DHT22;5274;51.992;8.518;2022-11-02T15:08:36;13.40;99.90
10453;DHT22;5274;51.992;8.518;2022-11-02T15:11:50;13.30;99.90
10453;DHT22;5274;51.992;8.518;2022-11-02T15:14:53;13.20;99.90
10453;DHT22;5274;51.992;8.518;2022-11-02T15:25:11;13.00;99.90
10453;DHT22;5274;51.992;8.518;2022-11-02T15:27:40;12.90;1.00
10453;DHT22;5274;51.992;8.518;2022-11-02T15:30:11;12.80;1.00
10453;DHT22;5274;51.992;8.518;2022-11-02T15:32:40;12.70;1.00
10453;DHT22;5274;51.992;8.518;2022-11-02T15:35:18;12.70;1.00
10453;DHT22;5274;51.992;8.518;2022-11-02T15:37:44;12.60;1.00
10453;DHT22;5274;51.992;8.518;2022-11-02T15:40:19;12.50;1.00
10453;DHT22;5274;51.992;8.518;2022-11-02T15:45:54;12.40;1.00
10453;DHT22;5274;51.992;8.518;2022-11-02T16:02:17;11.70;1.00
10453;DHT22;5274;51.992;8.518;2022-11-02T16:04:47;11.60;1.00
10453;DHT22;5274;51.992;8.518;2022-11-02T16:07:15;11.60;1.00
10453;DHT22;5274;51.992;8.518;2022-11-02T16:09:42;11.50;1.00
10453;DHT22;5274;51.992;8.518;2022-11-02T16:12:17;11.40;1.00
10453;DHT22;5274;51.992;8.518;2022-11-02T16:14:49;11.40;1.00
10453;DHT22;5274;51.992;8.518;2022-11-02T16:17:26;11.30;1.00
10453;DHT22;5274;51.992;8.518;2022-11-02T16:20:15;11.20;1.00
10453;DHT22;5274;51.992;8.518;2022-11-02T16:22:49;11.20;1.00
10453;DHT22;5274;51.992;8.518;2022-11-02T16:25:44;11.10;1.00
10453;DHT22;5274;51.992;8.518;2022-11-02T16:30:57;10.90;1.00
10453;DHT22;5274;51.992;8.518;2022-11-02T16:33:24;10.80;1.00
10453;DHT22;5274;51.992;8.518;2022-11-02T16:35:51;10.70;1.00
10453;DHT22;5274;51.992;8.518;2022-11-02T16:38:18;10.60;1.00
10453;DHT22;5274;51.992;8.518;2022-11-02T16:40:44;10.50;1.00
10453;DHT22;5274;51.992;8.518;2022-11-02T16:43:13;10.40;1.00
10453;DHT22;5274;51.992;8.518;2022-11-02T16:45:40;10.40;1.00
10453;DHT22;5274;51.992;8.518;2022-11-02T16:48:23;10.30;1.00
10453;DHT22;5274;51.992;8.518;2022-11-02T16:51:24;10.20;1.00
10453;DHT22;5274;51.992;8.518;2022-11-02T16:53:51;10.20;1.00
10453;DHT22;5274;51.992;8.518;2022-11-02T16:56:27;10.10;1.00
10453;DHT22;5274;51.992;8.518;2022-11-02T16:59:03;10.00;1.00
10453;DHT22;5274;51.992;8.518;2022-11-02T17:01:35;10.00;1.00
10453;DHT22;5274;51.992;8.518;2022-11-02T17:04:20;9.90;1.00
10453;DHT22;5274;51.992;8.518;2022-11-02T17:06:47;9.80;1.00
10453;DHT22;5274;51.992;8.518;2022-11-02T17:09:30;9.70;1.00
10453;DHT22;5274;51.992;8.518;2022-11-02T17:12:10;9.70;1.00
10453;DHT22;5274;51.992;8.518;2022-11-02T17:14:43;9.60;1.00
10453;DHT22;5274;51.992;8.518;2022-11-02T17:20:04;9.60;24.10
10453;DHT22;5274;51.992;8.518;2022-11-02T17:22:35;9.50;36.30
10453;DHT22;5274;51.992;8.518;2022-11-02T17:25:10;9.50;44.60
10453;DHT22;5274;51.992;8.518;2022-11-02T17:27:36;9.40;55.00
10453;DHT22;5274;51.992;8.518;2022-11-02T17:30:03;9.40;65.70
10453;DHT22;5274;51.992;8.518;2022-11-02T17:32:29;9.40;71.80
10453;DHT22;5274;51.992;8.518;2022-11-02T17:34:55;9.30;92.20
10453;DHT22;5274;51.992;8.518;2022-11-02T17:37:24;9.30;97.30
10453;DHT22;5274;51.992;8.518;2022-11-02T17:39:50;9.20;99.90
10453;DHT22;5274;51.992;8.518;2022-11-02T17:42:16;9.20;99.90
10453;DHT22;5274;51.992;8.518;2022-11-02T17:47:44;9.10;99.90
10453;DHT22;5274;51.992;8.518;2022-11-02T17:50:10;9.10;99.90
10453;DHT22;5274;51.992;8.518;2022-11-02T17:52:35;9.10;99.90
10453;DHT22;5274;51.992;8.518;2022-11-02T17:55:01;9.00;99.90
10453;DHT22;5274;51.992;8.518;2022-11-02T17:57:26;8.90;99.90
10453;DHT22;5274;51.992;8.518;2022-11-02T17:59:52;8.90;99.90
10453;DHT22;5274;51.992;8.518;2022-11-02T18:02:17;8.80;99.90
10453;DHT22;5274;51.992;8.518;2022-11-02T18:04:43;8.90;99.90
10453;DHT22;5274;51.992;8.518;2022-11-02T18:07:08;8.80;99.90
10453;DHT22;5274;51.992;8.518;2022-11-02T18:09:34;8.70;99.90
10453;DHT22;5274;51.992;8.518;2022-11-02T18:12:00;8.70;99.90
10453;DHT22;5274;51.992;8.518;2022-11-02T18:14:25;8.70;99.90
10453;DHT22;5274;51.992;8.518;2022-11-02T18:16:50;8.70;99.90
10453;DHT22;5274;51.992;8.518;2022-11-02T18:19:17;8.70;99.90
10453;DHT22;5274;51.992;8.518;2022-11-02T18:21:43;8.70;99.90
10453;DHT22;5274;51.992;8.518;2022-11-02T18:24:08;8.70;99.90
10453;DHT22;5274;51.992;8.518;2022-11-02T18:26:35;8.70;99.90
10453;DHT22;5274;51.992;8.518;2022-11-02T18:29:01;8.70;99.90
10453;DHT22;5274;51.992;8.518;2022-11-02T18:31:29;8.60;99.90
10453;DHT22;5274;51.992;8.518;2022-11-02T18:33:54;8.60;99.90
10453;DHT22;5274;51.992;8.518;2022-11-02T18:36:21;8.60;99.90
10453;DHT22;5274;51.992;8.518;2022-11-02T18:38:46;8.60;99.90
10453;DHT22;5274;51.992;8.518;2022-11-02T18:41:12;8.60;99.90
10453;DHT22;5274;51.992;8.518;2022-11-02T18:44:00;8.70;99.90
10453;DHT22;5274;51.992;8.518;2022-11-02T18:46:27;8.70;99.90
10453;DHT22;5274;51.992;8.518;2022-11-02T18:48:53;8.60;99.90
10453;DHT22;5274;51.992;8.518;2022-11-02T18:51:20;8.60;99.90